Time;durP1;ratioP1;P1;durP2;ratioP2;P2;SDS_P1;SDS_P2;PMS_P1;PMS_P2;Temp;Humidity;BMP_temperature;BMP_pressure;BME280_temperature;BME280_humidity;BME280_pressure;Samples;Min_cycle;Max_cycle;Signal;HPM_P1;HPM_P2
2022/12/07 00:00:30;;;;;;;28.65;17.25;;;;;;;;;;4930787;29;20040;-68
2022/12/07 00:02:56;;;;;;;32.28;18.70;;;;;;;;;;4923025;29;20038;-69
2022/12/07 00:05:21;;;;;;;30.40;17.63;;;;;;;;;;4932463;29;20055;-70
2022/12/07 00:07:47;;;;;;;38.20;22.20;;;;;;;;;;4926824;29;20119;-70
2022/12/07 00:10:13;;;;;;;23.88;14.90;;;;;;;;;;4925305;29;20482;-72
2022/12/07 00:12:39;;;;;;;22.70;13.98;;;;;;;;;;4924985;29;20036;-70
2022/12/07 00:15:06;;;;;;;25.73;13.32;;;;;;;;;;4927809;29;20040;-71
2022/12/07 00:17:33;;;;;;;23.60;12.48;;;;;;;;;;4926810;29;20087;-70
2022/12/07 00:19:59;;;;;;;25.00;12.27;;;;;;;;;;4924537;29;20098;-72
2022/12/07 00:22:25;;;;;;;28.92;12.90;;;;;;;;;;4928990;29;20048;-70
2022/12/07 00:24:51;;;;;;;20.20;12.32;;;;;;;;;;4925903;29;20059;-70
2022/12/07 00:27:17;;;;;;;18.40;10.63;;;;;;;;;;4929474;29;20024;-71
2022/12/07 00:29:43;;;;;;;17.63;11.65;;;;;;;;;;4923857;29;20055;-70
2022/12/07 00:32:09;;;;;;;23.85;12.45;;;;;;;;;;4925747;29;20032;-69
2022/12/07 00:34:34;;;;;;;23.02;11.40;;;;;;;;;;4918814;29;20027;-70
2022/12/07 00:37:00;;;;;;;19.27;11.52;;;;;;;;;;4932316;29;20063;-71
2022/12/07 00:39:26;;;;;;;17.58;10.57;;;;;;;;;;4933274;29;20135;-71
2022/12/07 00:41:52;;;;;;;20.65;11.73;;;;;;;;;;4932541;29;20113;-70
2022/12/07 00:44:18;;;;;;;24.52;12.05;;;;;;;;;;4925875;29;20028;-70
2022/12/07 00:46:45;;;;;;;22.95;10.55;;;;;;;;;;4932787;29;20028;-70
2022/12/07 00:49:11;;;;;;;21.50;10.98;;;;;;;;;;4933085;29;20031;-71
2022/12/07 00:51:37;;;;;;;20.27;11.10;;;;;;;;;;4930430;29;20120;-72
2022/12/07 00:54:03;;;;;;;20.23;10.82;;;;;;;;;;4920127;29;20123;-71
2022/12/07 00:56:29;;;;;;;23.92;11.38;;;;;;;;;;4931593;29;20038;-71
2022/12/07 00:59:03;;;;;;;19.30;11.52;;;;;;;;;;4927997;29;20036;-72
2022/12/07 01:01:32;;;;;;;22.08;12.05;;;;;;;;;;4930916;29;20059;-71
2022/12/07 01:04:01;;;;;;;25.63;12.27;;;;;;;;;;4931799;29;20035;-72
2022/12/07 01:06:28;;;;;;;21.05;11.98;;;;;;;;;;4933865;29;20031;-72
2022/12/07 01:08:54;;;;;;;21.95;12.23;;;;;;;;;;4924944;29;20270;-71
2022/12/07 01:11:24;;;;;;;22.60;12.75;;;;;;;;;;4933534;29;20067;-71
2022/12/07 01:13:51;;;;;;;24.58;11.82;;;;;;;;;;4924229;29;20531;-71
2022/12/07 01:16:18;;;;;;;21.27;11.68;;;;;;;;;;4926611;29;20043;-71
2022/12/07 01:18:50;;;;;;;23.60;13.48;;;;;;;;;;4930363;29;20035;-71
2022/12/07 01:21:20;;;;;;;29.55;14.15;;;;;;;;;;4934284;29;20052;-71
2022/12/07 01:23:46;;;;;;;22.23;13.02;;;;;;;;;;4933509;29;20043;-70
2022/12/07 01:26:15;;;;;;;19.75;13.13;;;;;;;;;;4932334;29;20540;-70
2022/12/07 01:28:42;;;;;;;22.63;13.95;;;;;;;;;;4927861;29;20084;-71
2022/12/07 01:31:14;;;;;;;25.95;12.68;;;;;;;;;;4929297;29;20076;-71
2022/12/07 01:33:41;;;;;;;21.77;11.93;;;;;;;;;;4930260;29;20051;-72
2022/12/07 01:36:28;;;;;;;19.98;12.00;;;;;;;;;;4929006;29;20446;-72
2022/12/07 01:38:57;;;;;;;25.30;13.02;;;;;;;;;;4926219;29;20075;-71
2022/12/07 01:41:24;;;;;;;24.48;13.75;;;;;;;;;;4935923;29;20091;-71
2022/12/07 01:44:09;;;;;;;26.80;13.68;;;;;;;;;;4927555;29;20042;-71
2022/12/07 01:46:35;;;;;;;24.08;12.73;;;;;;;;;;4932692;29;20031;-71
2022/12/07 01:49:03;;;;;;;21.60;12.35;;;;;;;;;;4935587;29;20111;-72
2022/12/07 01:51:29;;;;;;;17.90;11.40;;;;;;;;;;4935327;29;20032;-72
2022/12/07 01:53:56;;;;;;;21.65;11.15;;;;;;;;;;4937143;29;20047;-71
2022/12/07 01:56:26;;;;;;;19.23;11.65;;;;;;;;;;4932449;29;20031;-71
2022/12/07 01:58:54;;;;;;;18.63;10.93;;;;;;;;;;4928102;29;20039;-71
2022/12/07 02:01:21;;;;;;;19.77;11.25;;;;;;;;;;4935647;29;20090;-71
2022/12/07 02:03:47;;;;;;;17.70;10.65;;;;;;;;;;4935639;29;20042;-71
2022/12/07 02:06:18;;;;;;;25.33;11.48;;;;;;;;;;4931901;29;20111;-71
2022/12/07 02:08:46;;;;;;;21.98;11.63;;;;;;;;;;4931257;29;20129;-71
2022/12/07 02:11:12;;;;;;;22.52;11.07;;;;;;;;;;4928195;29;20536;-72
2022/12/07 02:13:40;;;;;;;25.52;11.98;;;;;;;;;;4933073;29;20042;-71
2022/12/07 02:16:24;;;;;;;17.48;10.27;;;;;;;;;;4930884;28;20522;-71
2022/12/07 02:19:05;;;;;;;;;;;;;;;;;;4930913;29;20512;-71
2022/12/07 02:21:46;;;;;;;23.70;12.00;;;;;;;;;;4924824;29;19926;-70
2022/12/07 02:24:15;;;;;;;27.83;13.65;;;;;;;;;;4946167;28;20031;-71
2022/12/07 02:26:59;;;;;;;29.15;16.23;;;;;;;;;;4933453;29;20098;-71
2022/12/07 02:29:30;;;;;;;26.20;15.73;;;;;;;;;;4931592;29;20039;-71
2022/12/07 02:32:43;;;;;;;25.52;16.25;;;;;;;;;;4928236;29;20042;-71
2022/12/07 02:35:14;;;;;;;27.40;19.23;;;;;;;;;;4905171;29;20064;-71
2022/12/07 02:37:43;;;;;;;32.30;19.40;;;;;;;;;;4933854;29;20122;-71
2022/12/07 02:40:12;;;;;;;28.50;18.42;;;;;;;;;;4930592;29;20028;-70
2022/12/07 02:42:45;;;;;;;34.33;19.77;;;;;;;;;;4934912;29;20186;-71
2022/12/07 02:45:15;;;;;;;34.42;20.10;;;;;;;;;;4933002;29;20035;-71
2022/12/07 02:47:41;;;;;;;31.50;18.58;;;;;;;;;;4931995;29;20035;-71
2022/12/07 02:50:08;;;;;;;32.50;18.27;;;;;;;;;;4933353;29;20108;-71
2022/12/07 02:52:34;;;;;;;33.85;18.88;;;;;;;;;;4930698;29;20051;-71
2022/12/07 02:55:00;;;;;;;42.25;17.60;;;;;;;;;;4934197;29;20032;-71
2022/12/07 02:57:41;;;;;;;29.00;15.68;;;;;;;;;;4931950;29;20092;-72
2022/12/07 03:00:11;;;;;;;23.92;13.50;;;;;;;;;;4933901;29;20028;-71
2022/12/07 03:02:36;;;;;;;19.05;11.75;;;;;;;;;;4934073;29;20024;-71
2022/12/07 03:05:14;;;;;;;24.48;11.93;;;;;;;;;;4936067;29;20050;-71
2022/12/07 03:07:59;;;;;;;26.20;11.85;;;;;;;;;;4933895;29;20035;-70
2022/12/07 03:10:56;;;;;;;21.63;12.05;;;;;;;;;;4932029;29;20482;-71
2022/12/07 03:13:43;;;;;;;25.65;12.25;;;;;;;;;;4917401;29;20403;-71
2022/12/07 03:16:25;;;;;;;20.23;11.27;;;;;;;;;;4920347;29;20039;-70
2022/12/07 03:18:56;;;;;;;20.73;11.05;;;;;;;;;;4935466;29;20114;-71
2022/12/07 03:21:27;;;;;;;16.92;10.57;;;;;;;;;;4935511;29;20043;-71
2022/12/07 03:23:58;;;;;;;19.02;11.10;;;;;;;;;;4935811;29;20060;-71
2022/12/07 03:26:31;;;;;;;19.30;10.80;;;;;;;;;;4950205;28;20070;-70
2022/12/07 03:29:00;;;;;;;;;;;;;;;;;;4935831;29;20034;-70
2022/12/07 03:31:31;;;;;;;19.13;10.35;;;;;;;;;;4935409;29;19923;-71
2022/12/07 03:34:33;;;;;;;14.77;9.60;;;;;;;;;;4936155;29;20044;-71
2022/12/07 03:37:15;;;;;;;19.25;10.68;;;;;;;;;;4931841;29;20046;-72
2022/12/07 03:39:50;;;;;;;20.98;10.65;;;;;;;;;;4933893;29;20035;-72
2022/12/07 03:42:16;;;;;;;17.33;10.30;;;;;;;;;;4935558;29;20031;-71
2022/12/07 03:44:43;;;;;;;18.10;10.43;;;;;;;;;;4935091;29;20079;-71
2022/12/07 03:47:38;;;;;;;16.00;9.75;;;;;;;;;;4925679;29;20036;-71
2022/12/07 03:50:34;;;;;;;20.23;10.68;;;;;;;;;;4915327;29;20036;-71
2022/12/07 03:53:08;;;;;;;19.73;10.82;;;;;;;;;;4915198;29;20590;-70
2022/12/07 03:55:38;;;;;;;23.38;12.00;;;;;;;;;;4916634;29;20044;-71
2022/12/07 03:58:09;;;;;;;23.55;11.38;;;;;;;;;;4916833;29;20048;-71
2022/12/07 04:00:35;;;;;;;22.45;12.27;;;;;;;;;;4916670;29;20064;-70
2022/12/07 04:03:01;;;;;;;23.60;12.30;;;;;;;;;;4917282;29;20078;-70
2022/12/07 04:05:27;;;;;;;19.15;11.93;;;;;;;;;;4917049;29;20077;-71
2022/12/07 04:07:53;;;;;;;20.42;11.60;;;;;;;;;;4931926;29;20123;-71
2022/12/07 04:10:19;;;;;;;19.42;11.40;;;;;;;;;;4934584;29;20115;-71
2022/12/07 04:12:45;;;;;;;18.70;11.85;;;;;;;;;;4935558;29;20035;-72
2022/12/07 04:15:11;;;;;;;22.73;11.05;;;;;;;;;;4933899;29;20118;-71
2022/12/07 04:17:37;;;;;;;16.38;10.55;;;;;;;;;;4933008;29;20119;-71
2022/12/07 04:20:05;;;;;;;19.52;11.40;;;;;;;;;;4935943;29;20531;-71
2022/12/07 04:22:31;;;;;;;20.40;11.82;;;;;;;;;;4935190;29;20051;-71
2022/12/07 04:24:57;;;;;;;22.10;12.25;;;;;;;;;;4935589;29;20040;-72
2022/12/07 04:27:23;;;;;;;26.25;14.00;;;;;;;;;;4935663;29;20039;-71
2022/12/07 04:29:49;;;;;;;22.17;12.93;;;;;;;;;;4935223;29;20032;-71
2022/12/07 04:32:15;;;;;;;22.30;13.30;;;;;;;;;;4934734;29;20110;-71
2022/12/07 04:34:40;;;;;;;24.65;14.85;;;;;;;;;;4935452;29;20501;-71
2022/12/07 04:37:06;;;;;;;22.92;13.57;;;;;;;;;;4935430;29;20043;-70
2022/12/07 04:39:33;;;;;;;24.40;12.70;;;;;;;;;;4934336;29;20511;-71
2022/12/07 04:42:00;;;;;;;23.95;14.20;;;;;;;;;;4935468;29;20064;-71
2022/12/07 04:44:27;;;;;;;19.08;11.27;;;;;;;;;;4935367;29;20525;-71
2022/12/07 04:46:54;;;;;;;20.50;12.60;;;;;;;;;;4935011;29;20105;-70
2022/12/07 04:49:21;;;;;;;23.45;13.43;;;;;;;;;;4935177;29;20043;-71
2022/12/07 04:51:47;;;;;;;23.92;13.20;;;;;;;;;;4928286;29;20036;-72
2022/12/07 04:54:15;;;;;;;26.60;14.38;;;;;;;;;;4935234;29;20039;-71
2022/12/07 04:56:41;;;;;;;26.35;14.30;;;;;;;;;;4921754;28;20032;-72
2022/12/07 04:59:10;;;;;;;30.50;15.88;;;;;;;;;;4923127;29;20051;-71
2022/12/07 05:01:36;;;;;;;26.70;14.75;;;;;;;;;;4932753;29;20113;-71
2022/12/07 05:04:02;;;;;;;31.85;16.23;;;;;;;;;;4933654;29;20560;-71
2022/12/07 05:06:29;;;;;;;31.42;17.02;;;;;;;;;;4934602;29;20382;-71
2022/12/07 05:08:55;;;;;;;31.00;17.58;;;;;;;;;;4933947;29;20051;-71
2022/12/07 05:11:39;;;;;;;30.35;18.75;;;;;;;;;;4933782;29;20032;-71
2022/12/07 05:14:20;;;;;;;36.28;18.23;;;;;;;;;;4933736;29;20039;-71
2022/12/07 05:16:49;;;;;;;35.35;19.05;;;;;;;;;;4927741;29;20556;-71
2022/12/07 05:19:15;;;;;;;32.42;18.05;;;;;;;;;;4933685;29;20067;-71
2022/12/07 05:21:41;;;;;;;29.02;17.35;;;;;;;;;;4933179;29;20063;-70
2022/12/07 05:24:10;;;;;;;27.40;17.20;;;;;;;;;;4933843;29;20040;-72
2022/12/07 05:26:36;;;;;;;30.98;17.67;;;;;;;;;;4930808;29;20068;-71
2022/12/07 05:29:02;;;;;;;29.35;17.13;;;;;;;;;;4926995;29;20107;-71
2022/12/07 05:31:28;;;;;;;27.33;16.52;;;;;;;;;;4933161;29;20065;-71
2022/12/07 05:33:54;;;;;;;29.05;16.30;;;;;;;;;;4933885;29;20027;-72
2022/12/07 05:36:22;;;;;;;28.75;17.67;;;;;;;;;;4933671;29;20042;-72
2022/12/07 05:38:48;;;;;;;31.67;17.20;;;;;;;;;;4933482;29;20031;-71
2022/12/07 05:44:01;;;;;;;23.05;15.35;;;;;;;;;;4932086;29;20503;-71
2022/12/07 05:46:27;;;;;;;24.65;14.90;;;;;;;;;;4929211;29;20032;-71
2022/12/07 05:48:53;;;;;;;25.70;15.20;;;;;;;;;;4914769;29;20043;-71
2022/12/07 05:51:20;;;;;;;30.35;14.45;;;;;;;;;;4914604;29;20477;-71
2022/12/07 05:53:47;;;;;;;31.17;16.08;;;;;;;;;;4923768;29;20043;-73
2022/12/07 05:56:13;;;;;;;26.90;14.90;;;;;;;;;;4916966;29;20047;-71
2022/12/07 06:01:24;;;;;;;29.83;17.65;;;;;;;;;;4914208;29;20052;-71
2022/12/07 06:03:50;;;;;;;24.80;15.60;;;;;;;;;;4921260;29;20040;-71
2022/12/07 06:06:15;;;;;;;30.25;17.35;;;;;;;;;;4940515;29;20496;-72
2022/12/07 06:08:41;;;;;;;27.85;17.27;;;;;;;;;;4934398;29;20035;-72
2022/12/07 06:13:52;;;;;;;27.92;17.67;;;;;;;;;;4921989;29;20119;-72
2022/12/07 06:16:18;;;;;;;27.63;15.75;;;;;;;;;;4935410;29;20402;-71
2022/12/07 06:18:44;;;;;;;29.20;17.30;;;;;;;;;;4936091;29;20051;-71
2022/12/07 06:21:10;;;;;;;34.05;19.90;;;;;;;;;;4935061;29;20055;-73
2022/12/07 06:23:36;;;;;;;31.70;17.13;;;;;;;;;;4934429;29;20134;-72
2022/12/07 06:26:02;;;;;;;32.13;18.85;;;;;;;;;;4935344;29;20028;-71
2022/12/07 06:28:28;;;;;;;30.80;17.58;;;;;;;;;;4935832;29;20450;-71
2022/12/07 06:31:02;;;;;;;33.35;17.10;;;;;;;;;;4936555;29;20032;-71
2022/12/07 06:33:28;;;;;;;24.77;14.75;;;;;;;;;;4933088;29;20042;-72
2022/12/07 06:35:54;;;;;;;20.67;13.07;;;;;;;;;;4935057;29;20023;-71
2022/12/07 06:38:20;;;;;;;20.02;12.23;;;;;;;;;;4934979;29;20040;-72
2022/12/07 06:40:48;;;;;;;22.58;13.60;;;;;;;;;;4935753;29;20106;-72
2022/12/07 06:43:16;;;;;;;18.90;12.45;;;;;;;;;;4934641;29;20090;-71
2022/12/07 06:45:44;;;;;;;20.63;12.48;;;;;;;;;;4936644;29;20031;-71
2022/12/07 06:48:10;;;;;;;22.52;13.23;;;;;;;;;;4934163;29;20465;-71
2022/12/07 06:50:36;;;;;;;22.55;13.23;;;;;;;;;;4936272;29;20044;-71
2022/12/07 06:53:02;;;;;;;22.55;13.50;;;;;;;;;;4936396;29;20027;-72
2022/12/07 06:55:30;;;;;;;24.67;13.07;;;;;;;;;;4930792;29;20031;-73
2022/12/07 06:57:56;;;;;;;23.60;15.63;;;;;;;;;;4935943;29;20067;-70
2022/12/07 07:00:24;;;;;;;28.73;16.42;;;;;;;;;;4936334;29;20104;-72
2022/12/07 07:02:49;;;;;;;24.67;15.38;;;;;;;;;;4935772;29;20058;-71
2022/12/07 07:05:17;;;;;;;20.63;13.13;;;;;;;;;;4936179;29;20214;-72
2022/12/07 07:07:43;;;;;;;28.73;15.15;;;;;;;;;;4918500;29;20028;-72
2022/12/07 07:10:11;;;;;;;29.08;16.25;;;;;;;;;;4917564;29;20055;-72
2022/12/07 07:12:36;;;;;;;28.10;15.32;;;;;;;;;;4930763;29;20047;-73
2022/12/07 07:15:03;;;;;;;24.30;15.20;;;;;;;;;;4951225;29;20040;-72
2022/12/07 07:17:28;;;;;;;26.75;16.83;;;;;;;;;;4936135;29;20040;-73
2022/12/07 07:19:54;;;;;;;25.05;15.30;;;;;;;;;;4934635;29;20134;-71
2022/12/07 07:22:20;;;;;;;26.85;16.35;;;;;;;;;;4936635;29;20051;-72
2022/12/07 07:24:46;;;;;;;30.67;15.75;;;;;;;;;;4936911;29;20055;-71
2022/12/07 07:27:12;;;;;;;23.77;14.68;;;;;;;;;;4932690;29;20028;-72
2022/12/07 07:29:38;;;;;;;27.27;15.45;;;;;;;;;;4917794;29;20036;-72
2022/12/07 07:32:04;;;;;;;26.98;16.27;;;;;;;;;;4917735;29;20111;-72
2022/12/07 07:34:31;;;;;;;23.85;13.98;;;;;;;;;;4917182;29;20119;-73
2022/12/07 07:37:00;;;;;;;23.52;14.63;;;;;;;;;;4926210;29;20074;-72
2022/12/07 07:39:26;;;;;;;27.08;14.80;;;;;;;;;;4936284;29;20031;-73
2022/12/07 07:41:54;;;;;;;21.95;14.48;;;;;;;;;;4935999;29;20146;-73
2022/12/07 07:44:25;;;;;;;25.67;15.10;;;;;;;;;;4936059;29;20035;-72
2022/12/07 07:46:51;;;;;;;25.08;15.15;;;;;;;;;;4951465;29;20040;-71
2022/12/07 07:49:17;;;;;;;26.48;14.82;;;;;;;;;;4936787;29;20046;-71
2022/12/07 07:51:43;;;;;;;24.67;13.98;;;;;;;;;;4936473;29;20548;-74
2022/12/07 07:54:09;;;;;;;20.15;12.45;;;;;;;;;;4935621;29;20531;-75
2022/12/07 07:56:35;;;;;;;25.63;17.35;;;;;;;;;;4935460;29;20075;-74
2022/12/07 07:59:02;;;;;;;24.27;14.75;;;;;;;;;;4936524;29;20058;-74
2022/12/07 08:01:28;;;;;;;20.60;13.20;;;;;;;;;;4936081;29;20035;-72
2022/12/07 08:03:54;;;;;;;27.00;13.65;;;;;;;;;;4935765;29;20171;-74
2022/12/07 08:06:20;;;;;;;23.58;12.07;;;;;;;;;;4936727;29;20167;-73
2022/12/07 08:08:46;;;;;;;22.83;11.88;;;;;;;;;;4918558;29;20561;-73
2022/12/07 08:11:13;;;;;;;21.92;11.75;;;;;;;;;;4916478;29;20123;-73
2022/12/07 08:13:39;;;;;;;23.55;12.73;;;;;;;;;;4916748;29;20028;-74
2022/12/07 08:16:08;;;;;;;23.45;14.10;;;;;;;;;;4916786;29;20047;-74
2022/12/07 08:18:38;;;;;;;21.60;14.02;;;;;;;;;;4915316;29;20032;-74
2022/12/07 08:21:06;;;;;;;31.42;16.02;;;;;;;;;;4928707;29;20115;-73
2022/12/07 08:23:33;;;;;;;27.13;16.27;;;;;;;;;;4935774;29;20110;-73
2022/12/07 08:26:04;;;;;;;25.42;14.27;;;;;;;;;;4934685;29;20111;-74
2022/12/07 08:28:30;;;;;;;21.40;12.85;;;;;;;;;;4935702;29;20048;-74
2022/12/07 08:31:09;;;;;;;26.38;14.65;;;;;;;;;;4934243;29;20043;-74
2022/12/07 08:33:36;;;;;;;26.15;14.00;;;;;;;;;;4948988;28;20040;-73
2022/12/07 08:36:08;;;;;;;23.48;13.73;;;;;;;;;;4936467;29;20142;-73
2022/12/07 08:38:35;;;;;;;24.50;13.77;;;;;;;;;;4936299;29;20032;-73
2022/12/07 08:41:01;;;;;;;23.83;14.43;;;;;;;;;;4935335;29;20114;-73
2022/12/07 08:43:27;;;;;;;26.65;17.45;;;;;;;;;;4935067;29;20482;-73
2022/12/07 08:46:04;;;;;;;23.90;16.23;;;;;;;;;;4933476;29;20063;-73
2022/12/07 08:48:32;;;;;;;29.23;16.77;;;;;;;;;;4934286;29;20059;-74
2022/12/07 08:51:02;;;;;;;26.98;15.60;;;;;;;;;;4934600;29;20028;-73
2022/12/07 08:53:30;;;;;;;29.52;17.65;;;;;;;;;;4934680;29;20502;-73
2022/12/07 08:55:57;;;;;;;30.02;17.27;;;;;;;;;;4934468;29;20040;-73
2022/12/07 08:58:24;;;;;;;31.45;17.77;;;;;;;;;;4936795;29;20046;-73
2022/12/07 09:00:50;;;;;;;29.25;17.60;;;;;;;;;;4917723;29;20039;-71
2022/12/07 09:03:16;;;;;;;29.35;18.00;;;;;;;;;;4934760;29;20381;-73
2022/12/07 09:05:42;;;;;;;27.70;17.58;;;;;;;;;;4934500;29;20034;-73
2022/12/07 09:08:08;;;;;;;28.63;17.42;;;;;;;;;;4948986;29;20036;-73
2022/12/07 09:10:34;;;;;;;31.75;18.77;;;;;;;;;;4933828;29;20114;-74
2022/12/07 09:13:03;;;;;;;28.23;16.77;;;;;;;;;;4949140;29;20171;-72
2022/12/07 09:15:31;;;;;;;29.80;18.45;;;;;;;;;;4934196;29;20112;-73
2022/12/07 09:17:57;;;;;;;35.58;18.00;;;;;;;;;;4934523;29;20047;-72
2022/12/07 09:20:23;;;;;;;32.88;18.40;;;;;;;;;;4933922;29;20171;-73
2022/12/07 09:22:49;;;;;;;29.25;16.75;;;;;;;;;;4932277;29;20102;-71
2022/12/07 09:25:15;;;;;;;29.23;17.10;;;;;;;;;;4933907;29;20073;-75
2022/12/07 09:27:41;;;;;;;32.45;17.77;;;;;;;;;;4934354;29;20534;-72
2022/12/07 09:30:08;;;;;;;32.35;18.35;;;;;;;;;;4934245;29;20575;-73
2022/12/07 09:32:35;;;;;;;29.13;16.77;;;;;;;;;;4934541;29;20083;-74
2022/12/07 09:35:02;;;;;;;30.27;17.35;;;;;;;;;;4934524;29;20576;-74
2022/12/07 09:37:28;;;;;;;27.73;15.88;;;;;;;;;;4934006;29;20048;-72
2022/12/07 09:39:54;;;;;;;24.95;14.68;;;;;;;;;;4933274;29;20039;-70
2022/12/07 09:42:35;;;;;;;28.95;18.35;;;;;;;;;;4934792;29;20051;-72
2022/12/07 09:45:04;;;;;;;26.40;16.63;;;;;;;;;;4938140;29;20043;-72
2022/12/07 09:47:30;;;;;;;25.63;16.05;;;;;;;;;;4937626;29;20040;-72
2022/12/07 09:50:06;;;;;;;27.85;15.90;;;;;;;;;;4936123;29;20047;-73
2022/12/07 09:52:32;;;;;;;22.65;15.18;;;;;;;;;;4938020;29;20047;-72
2022/12/07 09:54:59;;;;;;;29.35;17.55;;;;;;;;;;4937556;29;20040;-73
2022/12/07 09:57:31;;;;;;;33.38;18.80;;;;;;;;;;4937641;29;20074;-73
2022/12/07 10:00:02;;;;;;;29.25;16.33;;;;;;;;;;4931191;29;20615;-73
2022/12/07 10:02:41;;;;;;;26.20;15.75;;;;;;;;;;4918060;29;20044;-74
2022/12/07 10:05:14;;;;;;;27.70;16.58;;;;;;;;;;4934131;29;20560;-74
2022/12/07 10:07:40;;;;;;;24.17;15.90;;;;;;;;;;4937534;29;20082;-74
2022/12/07 10:10:15;;;;;;;41.97;17.48;;;;;;;;;;4937779;29;20526;-74
2022/12/07 10:13:03;;;;;;;48.33;18.63;;;;;;;;;;4937575;29;20429;-74
2022/12/07 10:16:01;;;;;;;51.13;19.00;;;;;;;;;;4923328;29;20502;-72
2022/12/07 10:18:41;;;;;;;42.28;18.67;;;;;;;;;;4917908;29;20560;-74
2022/12/07 10:21:27;;;;;;;33.55;17.38;;;;;;;;;;4918018;29;20048;-74
2022/12/07 10:24:03;;;;;;;75.38;21.88;;;;;;;;;;4918308;29;21080;-74
2022/12/07 10:26:51;;;;;;;40.78;18.75;;;;;;;;;;4917637;29;20659;-71
2022/12/07 10:29:30;;;;;;;38.05;18.02;;;;;;;;;;4918706;29;20494;-73
2022/12/07 10:32:20;;;;;;;33.28;15.65;;;;;;;;;;4918296;29;20056;-74
2022/12/07 10:34:46;;;;;;;38.45;17.33;;;;;;;;;;4920066;29;20562;-75
2022/12/07 10:37:19;;;;;;;29.67;18.33;;;;;;;;;;4919239;29;20036;-74
2022/12/07 10:39:52;;;;;;;100.60;24.42;;;;;;;;;;4918252;29;20050;-73
2022/12/07 10:42:30;;;;;;;52.70;19.03;;;;;;;;;;4918012;29;20576;-73
2022/12/07 10:45:15;;;;;;;56.97;19.05;;;;;;;;;;4917918;29;20106;-74
2022/12/07 10:48:04;;;;;;;45.08;19.02;;;;;;;;;;4917718;29;20085;-72
2022/12/07 10:51:11;;;;;;;76.35;20.08;;;;;;;;;;4917882;29;20062;-74
2022/12/07 10:53:47;;;;;;;52.45;19.95;;;;;;;;;;4930894;29;20053;-73
2022/12/07 10:56:21;;;;;;;30.58;16.85;;;;;;;;;;4936331;29;20084;-74
2022/12/07 10:58:52;;;;;;;63.60;19.90;;;;;;;;;;4936961;29;20134;-74
2022/12/07 11:01:53;;;;;;;42.15;18.92;;;;;;;;;;4936615;29;20191;-73
2022/12/07 11:04:37;;;;;;;52.78;17.10;;;;;;;;;;4935754;29;20420;-73
2022/12/07 11:07:37;;;;;;;64.05;20.20;;;;;;;;;;4917704;29;20387;-74
2022/12/07 11:10:29;;;;;;;49.10;20.52;;;;;;;;;;4917391;29;20032;-73
2022/12/07 11:12:59;;;;;;;42.13;17.00;;;;;;;;;;4931693;29;20036;-74
2022/12/07 11:15:40;;;;;;;42.40;19.17;;;;;;;;;;4917372;29;20032;-74
2022/12/07 11:18:43;;;;;;;37.65;17.02;;;;;;;;;;4916980;29;20123;-73
2022/12/07 11:21:35;;;;;;;36.17;15.50;;;;;;;;;;4916291;29;20044;-74
2022/12/07 11:24:49;;;;;;;43.38;16.33;;;;;;;;;;4916979;29;20088;-73
2022/12/07 11:27:49;;;;;;;28.80;14.27;;;;;;;;;;4917328;29;20047;-74
2022/12/07 11:30:35;;;;;;;36.15;15.40;;;;;;;;;;4916854;29;20519;-73
2022/12/07 11:33:12;;;;;;;31.77;14.77;;;;;;;;;;4917408;29;20058;-73
2022/12/07 11:36:11;;;;;;;31.73;16.05;;;;;;;;;;4916965;29;20036;-73
2022/12/07 11:38:52;;;;;;;38.78;17.35;;;;;;;;;;4917431;29;20118;-73
2022/12/07 11:41:34;;;;;;;46.20;18.98;;;;;;;;;;4917211;29;20040;-72
2022/12/07 11:44:27;;;;;;;37.72;16.45;;;;;;;;;;4926165;29;20037;-73
2022/12/07 11:47:21;;;;;;;42.95;18.27;;;;;;;;;;4934922;29;20047;-74
2022/12/07 11:49:55;;;;;;;40.05;16.20;;;;;;;;;;4935003;29;20379;-74
2022/12/07 11:52:59;;;;;;;34.70;16.38;;;;;;;;;;4934181;29;20134;-75
2022/12/07 11:55:48;;;;;;;50.17;18.25;;;;;;;;;;4936122;29;20126;-73
2022/12/07 11:58:44;;;;;;;29.55;16.70;;;;;;;;;;4935579;29;20039;-72
2022/12/07 12:01:35;;;;;;;29.52;17.20;;;;;;;;;;4934735;29;20427;-74
2022/12/07 12:04:12;;;;;;;25.98;16.45;;;;;;;;;;4935490;29;20040;-73
2022/12/07 12:06:43;;;;;;;26.98;17.23;;;;;;;;;;4925964;29;20028;-73
2022/12/07 12:09:18;;;;;;;26.92;18.38;;;;;;;;;;4932131;29;20455;-72
2022/12/07 12:12:05;;;;;;;28.45;18.52;;;;;;;;;;4935006;29;20062;-74
2022/12/07 12:14:43;;;;;;;24.67;16.98;;;;;;;;;;4931587;29;20577;-73
2022/12/07 12:17:43;;;;;;;33.67;20.60;;;;;;;;;;4934106;29;20106;-73
2022/12/07 12:20:35;;;;;;;26.92;18.30;;;;;;;;;;4936615;29;20059;-74
2022/12/07 12:23:13;;;;;;;36.08;19.65;;;;;;;;;;4931587;29;20449;-73
2022/12/07 12:25:46;;;;;;;44.13;21.08;;;;;;;;;;4934697;29;20039;-72
2022/12/07 12:28:27;;;;;;;33.65;19.83;;;;;;;;;;4933778;29;20552;-73
2022/12/07 12:31:12;;;;;;;26.23;18.45;;;;;;;;;;4932822;29;20085;-74
2022/12/07 12:33:45;;;;;;;32.85;19.33;;;;;;;;;;4931648;29;20075;-74
2022/12/07 12:36:18;;;;;;;43.50;21.05;;;;;;;;;;4946668;29;20031;-73
2022/12/07 12:38:52;;;;;;;67.40;23.83;;;;;;;;;;4934867;29;20043;-73
2022/12/07 12:41:36;;;;;;;90.55;26.05;;;;;;;;;;4933110;29;20035;-74
2022/12/07 12:44:23;;;;;;;70.47;24.27;;;;;;;;;;4933541;29;20114;-74
2022/12/07 12:47:30;;;;;;;48.78;25.80;;;;;;;;;;4912892;29;20043;-73
2022/12/07 12:50:24;;;;;;;35.55;19.80;;;;;;;;;;4927486;29;20039;-72
2022/12/07 12:52:58;;;;;;;34.17;21.70;;;;;;;;;;4935235;29;20478;-73
2022/12/07 12:55:43;;;;;;;43.10;21.70;;;;;;;;;;4932709;28;20485;-73
2022/12/07 12:58:18;;;;;;;60.53;21.23;;;;;;;;;;4933798;29;20043;-73
2022/12/07 13:01:09;;;;;;;50.45;21.80;;;;;;;;;;4947597;29;20039;-74
2022/12/07 13:03:35;;;;;;;44.67;21.45;;;;;;;;;;4933829;29;20042;-73
2022/12/07 13:06:42;;;;;;;65.93;25.20;;;;;;;;;;4934697;29;20028;-73
2022/12/07 13:09:21;;;;;;;53.90;24.08;;;;;;;;;;4930834;29;20040;-72
2022/12/07 13:11:47;;;;;;;43.60;21.83;;;;;;;;;;4931247;29;20038;-71
2022/12/07 13:14:40;;;;;;;42.75;21.45;;;;;;;;;;4934756;29;20379;-74
2022/12/07 13:17:11;;;;;;;54.97;23.23;;;;;;;;;;4934516;29;20146;-73
2022/12/07 13:19:43;;;;;;;32.88;20.10;;;;;;;;;;4919680;29;20172;-74
2022/12/07 13:22:31;;;;;;;41.42;22.88;;;;;;;;;;4919580;29;20560;-74
2022/12/07 13:25:17;;;;;;;38.33;21.98;;;;;;;;;;4927799;29;20040;-75
2022/12/07 13:27:52;;;;;;;38.47;22.15;;;;;;;;;;4938313;29;20111;-73
2022/12/07 13:30:20;;;;;;;45.20;21.15;;;;;;;;;;4937987;29;20561;-73
2022/12/07 13:32:58;;;;;;;30.08;20.15;;;;;;;;;;4938502;29;20079;-76
2022/12/07 13:35:33;;;;;;;29.52;19.58;;;;;;;;;;4936548;29;20055;-75
2022/12/07 13:38:01;;;;;;;35.53;20.45;;;;;;;;;;4929925;29;20090;-73
2022/12/07 13:40:27;;;;;;;40.90;20.85;;;;;;;;;;4935647;29;20027;-74
2022/12/07 13:43:05;;;;;;;50.67;21.08;;;;;;;;;;4931858;29;20417;-73
2022/12/07 13:45:48;;;;;;;37.85;20.45;;;;;;;;;;4948452;29;20569;-73
2022/12/07 13:48:33;;;;;;;33.67;21.58;;;;;;;;;;4929526;29;20119;-74
2022/12/07 13:51:02;;;;;;;51.30;24.13;;;;;;;;;;4932326;29;20031;-74
2022/12/07 13:53:30;;;;;;;38.65;22.00;;;;;;;;;;4929646;29;20087;-73
2022/12/07 13:56:02;;;;;;;40.88;22.48;;;;;;;;;;4932867;29;20039;-74
2022/12/07 13:58:31;;;;;;;45.83;22.92;;;;;;;;;;4929874;29;20457;-75
2022/12/07 14:00:58;;;;;;;44.47;22.30;;;;;;;;;;4923320;29;20043;-75
2022/12/07 14:03:32;;;;;;;36.35;20.40;;;;;;;;;;4929285;29;20409;-75
2022/12/07 14:06:09;;;;;;;43.25;20.42;;;;;;;;;;4930716;29;20136;-76
2022/12/07 14:08:35;;;;;;;38.25;19.75;;;;;;;;;;4933800;29;20036;-75
2022/12/07 14:11:03;;;;;;;37.58;20.70;;;;;;;;;;4931678;29;20488;-76
2022/12/07 14:13:34;;;;;;;31.27;19.63;;;;;;;;;;4929858;29;20048;-75
2022/12/07 14:16:02;;;;;;;42.15;22.40;;;;;;;;;;4931792;29;20051;-75
2022/12/07 14:18:30;;;;;;;35.22;19.83;;;;;;;;;;4935223;29;20393;-75
2022/12/07 14:21:24;;;;;;;33.03;19.73;;;;;;;;;;4932422;29;20086;-75
2022/12/07 14:24:22;;;;;;;35.13;19.50;;;;;;;;;;4926776;29;20066;-75
2022/12/07 14:26:50;;;;;;;31.20;18.85;;;;;;;;;;4905000;29;20381;-76
2022/12/07 14:29:25;;;;;;;28.77;19.10;;;;;;;;;;4924805;29;20043;-74
2022/12/07 14:31:52;;;;;;;27.88;18.17;;;;;;;;;;4930436;29;20192;-76
2022/12/07 14:34:23;;;;;;;29.58;18.60;;;;;;;;;;4934015;29;20124;-76
2022/12/07 14:36:49;;;;;;;34.15;17.30;;;;;;;;;;4934268;29;20031;-72
2022/12/07 14:39:15;;;;;;;27.15;17.33;;;;;;;;;;4930238;29;20028;-75
2022/12/07 14:41:50;;;;;;;28.17;19.00;;;;;;;;;;4932070;29;20060;-74
2022/12/07 14:44:17;;;;;;;32.63;21.83;;;;;;;;;;4944893;29;20028;-74
2022/12/07 14:46:43;;;;;;;31.48;19.00;;;;;;;;;;4934451;29;20027;-75
2022/12/07 14:49:09;;;;;;;28.38;18.85;;;;;;;;;;4931008;29;20043;-74
2022/12/07 14:51:38;;;;;;;28.58;18.13;;;;;;;;;;4930743;29;20438;-73
2022/12/07 14:54:09;;;;;;;44.70;19.92;;;;;;;;;;4934158;29;20575;-73
2022/12/07 14:56:37;;;;;;;29.08;17.92;;;;;;;;;;4932594;29;20042;-76